Terminal Aerodrome Forecast
Issued by NWS

Home | Current Version | Previous Version | Text Only | Print | Product List | Glossary On
Versions: 1 2 3 4 5 6 7 8 9 10 11 12 13 14 15 16 17 18 19 20 21 22 23 24 25 26
000
FTUS41 KOKX 182044 AAB
TAFSWF
TAF AMD
KSWF 182044Z 1821/1924 03005KT P6SM BKN008 OVC012
     FM182200 01005KT P6SM OVC015
     FM190000 VRB02KT P6SM BKN025
     FM190700 VRB03KT P6SM SCT020 BKN040
     FM191400 28005KT P6SM FEW035 SCT100
     FM191900 29006KT P6SM SCT020
      AMD NOT SKED=

USA.gov is the U.S. government's official web portal to all federal, state and local government web resources and services.